createdAt,value
2019-01-29T00:00:07.570Z,9.38
2019-01-29T00:02:47.598Z,12.45
2019-01-29T00:05:27.775Z,14.03
2019-01-29T00:08:07.789Z,14.45
2019-01-29T00:10:47.784Z,13.03
2019-01-29T00:13:28.059Z,13.58
2019-01-29T00:16:08.113Z,15.78
2019-01-29T00:18:48.092Z,10.38
2019-01-29T00:21:28.019Z,11.05
2019-01-29T00:24:08.072Z,16.43
2019-01-29T00:26:48.220Z,12.85
2019-01-29T00:29:28.215Z,10.75
2019-01-29T00:32:08.259Z,11.00
2019-01-29T00:34:48.355Z,10.30
2019-01-29T00:37:28.500Z,11.40
2019-01-29T00:40:08.537Z,11.05
2019-01-29T00:42:48.608Z,12.73
2019-01-29T00:45:28.365Z,11.55
2019-01-29T00:48:08.551Z,14.45
2019-01-29T00:50:48.905Z,11.13
2019-01-29T00:53:28.896Z,12.73
2019-01-29T00:56:09.027Z,11.75
2019-01-29T00:58:49.161Z,12.83
2019-01-29T01:01:29.194Z,8.67
2019-01-29T01:04:09.176Z,13.57
2019-01-29T01:06:49.201Z,15.13
2019-01-29T01:09:29.371Z,11.97
2019-01-29T01:12:09.476Z,9.27
2019-01-29T01:14:49.522Z,14.30
2019-01-29T01:17:29.519Z,12.70
2019-01-29T01:20:09.802Z,9.20
2019-01-29T01:22:51.432Z,17.30
2019-01-29T01:25:32.138Z,9.17
2019-01-29T01:28:12.377Z,10.30
2019-01-29T01:30:52.148Z,11.33
2019-01-29T01:33:32.337Z,11.63
2019-01-29T01:36:12.394Z,12.03
2019-01-29T01:38:52.427Z,12.57
2019-01-29T01:41:32.485Z,14.73
2019-01-29T01:44:12.600Z,10.00
2019-01-29T01:46:52.629Z,13.13
2019-01-29T01:49:32.592Z,13.33
2019-01-29T01:52:12.577Z,10.27
2019-01-29T01:54:52.704Z,12.47
2019-01-29T01:57:32.517Z,10.60
2019-01-29T02:00:12.481Z,13.43
2019-01-29T02:02:52.525Z,13.73
2019-01-29T02:05:32.536Z,13.48
2019-01-29T02:08:12.634Z,14.40
2019-01-29T02:10:52.717Z,12.68
2019-01-29T02:13:32.872Z,11.48
2019-01-29T02:16:12.784Z,14.13
2019-01-29T02:18:52.829Z,10.60
2019-01-29T02:21:32.571Z,9.27
2019-01-29T02:24:12.518Z,11.80
2019-01-29T02:26:52.541Z,8.58
2019-01-29T02:29:32.609Z,14.03
2019-01-29T02:32:12.502Z,10.10
2019-01-29T02:34:52.510Z,8.77
2019-01-29T02:37:32.606Z,10.87
2019-01-29T02:40:12.730Z,7.97
2019-01-29T02:42:52.961Z,8.27
2019-01-29T02:45:32.806Z,11.23
2019-01-29T02:48:12.653Z,10.40
2019-01-29T02:50:52.741Z,10.87
2019-01-29T02:53:33.047Z,12.03
2019-01-29T02:56:12.986Z,9.10
2019-01-29T02:58:53.155Z,8.73
2019-01-29T03:01:33.082Z,8.03
2019-01-29T03:04:13.386Z,9.08
2019-01-29T03:06:53.298Z,9.73
2019-01-29T03:09:33.173Z,9.48
2019-01-29T03:12:13.234Z,9.53
2019-01-29T03:14:53.297Z,11.57
2019-01-29T03:17:33.393Z,7.72
2019-01-29T03:20:13.283Z,8.95
2019-01-29T03:22:53.372Z,13.28
2019-01-29T03:25:33.410Z,11.50
2019-01-29T03:28:13.196Z,7.62
2019-01-29T03:30:53.420Z,8.08
2019-01-29T03:33:33.222Z,7.25
2019-01-29T03:36:13.404Z,7.83
2019-01-29T03:38:53.552Z,8.90
2019-01-29T03:41:34.109Z,8.80
2019-01-29T03:44:14.056Z,9.35
2019-01-29T03:46:54.289Z,9.18
2019-01-29T03:49:34.175Z,7.58
2019-01-29T03:52:14.232Z,10.63
2019-01-29T03:54:54.154Z,8.45
2019-01-29T03:57:34.004Z,7.33
2019-01-29T04:00:13.882Z,8.25
2019-01-29T04:02:53.870Z,8.08
2019-01-29T04:05:33.884Z,10.13
2019-01-29T04:08:13.892Z,8.73
2019-01-29T04:10:54.092Z,12.90
2019-01-29T04:13:34.284Z,10.98
2019-01-29T04:16:14.240Z,12.90
2019-01-29T04:18:54.301Z,7.40
2019-01-29T04:21:34.218Z,7.83
2019-01-29T04:24:14.122Z,8.60
2019-01-29T04:26:54.025Z,10.28
2019-01-29T04:29:34.092Z,8.35
2019-01-29T04:32:14.160Z,7.95
2019-01-29T04:34:54.249Z,9.85
2019-01-29T04:37:34.395Z,9.73
2019-01-29T04:40:14.574Z,9.08
2019-01-29T04:42:54.619Z,12.15
2019-01-29T04:45:34.701Z,8.40
2019-01-29T04:48:15.245Z,7.00
2019-01-29T04:50:55.221Z,12.20
2019-01-29T04:53:35.278Z,9.88
2019-01-29T04:56:15.289Z,9.83
2019-01-29T04:58:55.153Z,13.45
2019-01-29T05:01:35.151Z,6.25
2019-01-29T05:04:15.137Z,10.70
2019-01-29T05:06:55.346Z,8.85
2019-01-29T05:09:35.297Z,8.15
2019-01-29T05:12:15.409Z,13.65
2019-01-29T05:14:55.294Z,15.15
2019-01-29T05:17:35.387Z,10.58
2019-01-29T05:20:15.417Z,14.70
2019-01-29T05:22:55.614Z,13.58
2019-01-29T05:25:35.832Z,13.00
2019-01-29T05:28:16.146Z,13.72
2019-01-29T05:30:56.130Z,10.63
2019-01-29T05:33:36.271Z,13.62
2019-01-29T05:36:16.286Z,11.53
2019-01-29T05:38:56.586Z,18.23
2019-01-29T05:41:36.478Z,12.82
2019-01-29T05:44:16.770Z,11.45
2019-01-29T05:46:57.001Z,16.52
2019-01-29T05:49:37.216Z,9.55
2019-01-29T05:52:17.069Z,12.10
2019-01-29T05:54:57.269Z,9.35
2019-01-29T05:57:37.526Z,8.98
2019-01-29T06:00:17.971Z,10.15
2019-01-29T06:02:56.222Z,9.60
2019-01-29T06:05:43.322Z,9.73
2019-01-29T06:08:30.411Z,8.95
2019-01-29T06:11:17.520Z,14.40
2019-01-29T06:14:04.893Z,12.55
2019-01-29T06:16:51.998Z,9.48
2019-01-29T06:19:39.111Z,9.08
2019-01-29T06:22:19.092Z,7.42
2019-01-29T06:24:59.414Z,12.47
2019-01-29T06:27:39.590Z,8.18
2019-01-29T06:30:20.210Z,10.23
2019-01-29T06:33:00.795Z,11.30
2019-01-29T06:35:40.792Z,5.28
2019-01-29T06:38:20.710Z,12.85
2019-01-29T06:41:00.850Z,10.80
2019-01-29T06:43:40.805Z,7.60
2019-01-29T06:46:20.750Z,8.75
2019-01-29T06:49:00.708Z,14.90
2019-01-29T06:51:40.701Z,11.65
2019-01-29T06:54:22.867Z,9.38
2019-01-29T06:57:02.960Z,13.53
2019-01-29T06:59:42.858Z,12.82
2019-01-29T07:02:23.054Z,19.32
2019-01-29T07:05:03.157Z,12.28
2019-01-29T07:07:43.422Z,12.30
2019-01-29T07:10:23.417Z,20.20
2019-01-29T07:13:03.362Z,14.07
2019-01-29T07:18:54.775Z,16.27
2019-01-29T07:21:34.518Z,11.38
2019-01-29T07:24:14.561Z,16.07
2019-01-29T07:26:54.501Z,12.00
2019-01-29T07:29:34.340Z,14.33
2019-01-29T07:32:14.444Z,14.13
2019-01-29T07:34:54.452Z,19.23
2019-01-29T07:37:34.291Z,14.65
2019-01-29T07:40:14.516Z,9.58
2019-01-29T07:42:54.317Z,15.58
2019-01-29T07:45:34.334Z,15.87
2019-01-29T07:48:14.411Z,8.65
2019-01-29T07:50:54.751Z,9.30
2019-01-29T07:53:34.736Z,13.45
2019-01-29T07:56:14.686Z,26.35
2019-01-29T07:58:54.726Z,11.83
2019-01-29T08:01:34.946Z,15.53
2019-01-29T08:04:14.984Z,15.43
2019-01-29T08:06:55.063Z,13.83
2019-01-29T08:09:34.926Z,18.33
2019-01-29T08:12:15.065Z,15.97
2019-01-29T08:14:55.090Z,13.03
2019-01-29T08:17:35.086Z,11.87
2019-01-29T08:20:15.034Z,14.60
2019-01-29T08:22:54.970Z,18.77
2019-01-29T08:25:34.674Z,13.83
2019-01-29T08:28:14.733Z,17.53
2019-01-29T08:30:54.811Z,16.30
2019-01-29T08:33:34.853Z,12.20
2019-01-29T08:36:14.831Z,12.17
2019-01-29T08:38:54.501Z,13.73
2019-01-29T08:41:34.404Z,13.57
2019-01-29T08:44:14.459Z,15.63
2019-01-29T08:46:54.393Z,19.17
2019-01-29T08:49:34.241Z,15.00
2019-01-29T08:52:14.239Z,20.67
2019-01-29T08:54:54.153Z,17.30
2019-01-29T08:57:34.254Z,17.70
2019-01-29T09:00:14.085Z,15.43
2019-01-29T09:02:54.192Z,13.03
2019-01-29T09:05:34.216Z,13.00
2019-01-29T09:08:14.337Z,19.27
2019-01-29T09:10:54.330Z,16.87
2019-01-29T09:13:34.368Z,17.83
2019-01-29T09:16:14.449Z,17.40
2019-01-29T09:18:54.391Z,17.60
2019-01-29T09:21:34.280Z,19.87
2019-01-29T09:24:14.056Z,19.20
2019-01-29T09:26:54.398Z,15.60
2019-01-29T09:29:34.469Z,20.10
2019-01-29T09:32:14.894Z,17.93
2019-01-29T09:34:55.013Z,12.70
2019-01-29T09:37:35.178Z,18.70
2019-01-29T09:40:15.014Z,23.17
2019-01-29T09:42:54.940Z,18.90
2019-01-29T09:45:34.686Z,20.37
2019-01-29T09:48:15.059Z,14.57
2019-01-29T09:50:54.993Z,13.87
2019-01-29T09:53:35.124Z,13.27
2019-01-29T09:56:15.206Z,16.90
2019-01-29T09:58:55.203Z,13.97
2019-01-29T10:01:35.180Z,12.60
2019-01-29T10:04:15.122Z,20.57
2019-01-29T10:06:55.237Z,15.70
2019-01-29T10:09:35.173Z,15.83
2019-01-29T10:12:15.372Z,18.63
2019-01-29T10:14:55.662Z,21.23
2019-01-29T10:17:36.438Z,17.37
2019-01-29T10:20:16.229Z,17.13
2019-01-29T10:22:56.267Z,15.63
2019-01-29T10:25:37.833Z,16.27
2019-01-29T10:28:18.517Z,17.53
2019-01-29T10:30:58.412Z,11.40
2019-01-29T10:33:38.698Z,14.03
2019-01-29T10:36:06.592Z,19.03
2019-01-29T10:38:34.231Z,15.97
2019-01-29T10:41:01.941Z,12.47
2019-01-29T10:43:29.590Z,16.13
2019-01-29T10:45:57.276Z,16.60
2019-01-29T10:48:24.900Z,14.17
2019-01-29T10:50:52.785Z,12.57
2019-01-29T10:53:20.449Z,17.37
2019-01-29T10:55:48.134Z,18.87
2019-01-29T10:58:15.798Z,15.57
2019-01-29T11:00:43.421Z,16.30
2019-01-29T11:03:11.197Z,16.23
2019-01-29T11:05:38.978Z,13.47
2019-01-29T11:08:06.779Z,11.07
2019-01-29T11:10:34.439Z,14.33
2019-01-29T11:13:02.101Z,13.87
2019-01-29T11:15:32.466Z,16.17
2019-01-29T11:18:00.084Z,13.93
2019-01-29T11:20:27.898Z,26.97
2019-01-29T11:22:55.567Z,14.80
2019-01-29T11:25:25.070Z,14.17
2019-01-29T11:27:53.162Z,16.00
2019-01-29T11:30:23.161Z,18.40
2019-01-29T11:32:50.860Z,16.53
2019-01-29T11:35:18.542Z,17.60
2019-01-29T11:37:46.196Z,17.03
2019-01-29T11:40:19.288Z,14.10
2019-01-29T11:42:46.953Z,17.70
2019-01-29T11:45:38.336Z,14.73
2019-01-29T11:48:06.047Z,15.43
2019-01-29T11:50:33.989Z,18.20
2019-01-29T11:53:01.812Z,16.63
2019-01-29T11:55:29.614Z,16.63
2019-01-29T11:57:57.304Z,15.87
2019-01-29T12:00:49.832Z,17.77
2019-01-29T12:03:17.554Z,15.43
2019-01-29T12:05:45.227Z,18.87
2019-01-29T12:08:12.958Z,15.57
2019-01-29T12:10:40.752Z,16.30
2019-01-29T12:13:08.442Z,16.27
2019-01-29T12:15:36.128Z,19.43
2019-01-29T12:18:04.622Z,17.13
2019-01-29T12:20:32.345Z,25.17
2019-01-29T12:23:00.180Z,24.40
2019-01-29T12:25:27.847Z,18.97
2019-01-29T12:27:55.523Z,17.30
2019-01-29T12:30:23.400Z,20.40
2019-01-29T12:32:51.407Z,19.43
2019-01-29T12:35:19.445Z,29.07
2019-01-29T12:37:47.143Z,26.83
2019-01-29T12:40:14.820Z,26.60
2019-01-29T12:42:42.503Z,25.07
2019-01-29T12:45:10.592Z,23.30
2019-01-29T12:47:38.231Z,26.07
2019-01-29T12:50:08.141Z,21.73
2019-01-29T12:53:01.384Z,25.20
2019-01-29T12:55:29.055Z,19.13
2019-01-29T12:57:57.137Z,20.43
2019-01-29T13:00:26.985Z,20.47
2019-01-29T13:02:54.675Z,23.37
2019-01-29T13:05:22.339Z,23.30
2019-01-29T13:07:50.025Z,28.27
2019-01-29T13:10:19.101Z,20.43
2019-01-29T13:12:46.977Z,22.37
2019-01-29T13:15:17.085Z,24.83
2019-01-29T13:17:44.733Z,29.40
2019-01-29T13:20:12.437Z,25.07
2019-01-29T13:22:40.173Z,24.40
2019-01-29T13:25:08.437Z,22.57
2019-01-29T13:27:36.135Z,24.50
2019-01-29T13:30:05.706Z,21.47
2019-01-29T13:32:33.383Z,26.03
2019-01-29T13:35:01.130Z,22.77
2019-01-29T13:37:28.809Z,28.63
2019-01-29T13:39:56.482Z,27.13
2019-01-29T13:42:24.211Z,30.37
2019-01-29T13:44:51.844Z,28.27
2019-01-29T13:47:19.616Z,30.57
2019-01-29T13:49:47.441Z,24.07
2019-01-29T13:52:15.067Z,25.60
2019-01-29T13:54:42.713Z,21.23
2019-01-29T13:57:10.597Z,22.47
2019-01-29T13:59:38.254Z,23.50
2019-01-29T14:02:05.941Z,20.70
2019-01-29T14:04:33.656Z,21.03
2019-01-29T14:07:01.318Z,23.87
2019-01-29T14:09:29.006Z,24.43
2019-01-29T14:11:56.709Z,22.33
2019-01-29T14:14:26.155Z,23.70
2019-01-29T14:16:53.796Z,18.73
2019-01-29T14:19:21.539Z,18.60
2019-01-29T14:21:49.248Z,19.57
2019-01-29T14:24:16.965Z,18.33
2019-01-29T14:26:47.784Z,23.40
2019-01-29T14:29:14.157Z,18.80
2019-01-29T14:31:41.875Z,20.90
2019-01-29T14:34:09.701Z,19.27
2019-01-29T14:36:37.941Z,20.37
2019-01-29T14:39:24.601Z,20.90
2019-01-29T14:41:52.425Z,18.40
2019-01-29T14:44:26.180Z,20.37
2019-01-29T14:46:53.948Z,20.17
2019-01-29T14:49:21.632Z,19.20
2019-01-29T14:51:49.305Z,23.87
2019-01-29T14:54:17.186Z,24.23
2019-01-29T14:56:44.851Z,19.10
2019-01-29T14:59:12.538Z,22.13
2019-01-29T15:01:40.231Z,22.63
2019-01-29T15:04:07.899Z,19.93
2019-01-29T15:06:35.784Z,22.20
2019-01-29T15:09:07.493Z,21.00
2019-01-29T15:11:35.177Z,25.07
2019-01-29T15:14:02.956Z,22.37
2019-01-29T15:16:50.097Z,23.00
2019-01-29T15:19:20.500Z,28.87
2019-01-29T15:21:48.783Z,22.57
2019-01-29T15:24:16.616Z,24.53
2019-01-29T15:26:44.269Z,24.20
2019-01-29T15:29:11.950Z,23.37
2019-01-29T15:31:39.657Z,28.57
2019-01-29T15:34:07.317Z,28.73
2019-01-29T15:36:34.984Z,23.33
2019-01-29T15:39:04.711Z,26.63
2019-01-29T15:41:32.375Z,28.63
2019-01-29T15:44:00.055Z,26.23
2019-01-29T15:46:27.759Z,25.27
2019-01-29T15:48:55.423Z,24.17
2019-01-29T15:51:23.068Z,23.30
2019-01-29T15:53:50.778Z,24.30
2019-01-29T15:56:18.422Z,22.67
2019-01-29T15:58:46.145Z,22.03
2019-01-29T16:01:13.796Z,22.63
2019-01-29T16:03:41.506Z,22.70
2019-01-29T16:06:09.191Z,21.43
2019-01-29T16:08:36.868Z,18.10
2019-01-29T16:11:04.560Z,20.10
2019-01-29T16:13:32.218Z,18.93
2019-01-29T16:15:59.913Z,21.43
2019-01-29T16:18:27.731Z,19.87
2019-01-29T16:20:55.401Z,21.30
2019-01-29T16:23:23.028Z,26.27
2019-01-29T16:25:50.825Z,29.13
2019-01-29T16:28:18.477Z,26.07
2019-01-29T16:30:46.129Z,22.83
2019-01-29T16:33:13.786Z,21.27
2019-01-29T16:35:41.665Z,23.57
2019-01-29T16:38:09.420Z,24.20
2019-01-29T16:40:37.339Z,17.17
2019-01-29T16:43:04.991Z,25.20
2019-01-29T16:45:33.175Z,23.40
2019-01-29T16:48:01.804Z,20.82
2019-01-29T16:50:29.709Z,21.27
2019-01-29T16:52:57.721Z,22.67
2019-01-29T16:55:25.581Z,29.87
2019-01-29T16:57:53.581Z,20.67
2019-01-29T17:00:26.077Z,26.87
2019-01-29T17:02:53.956Z,21.70
2019-01-29T17:05:21.661Z,24.80
2019-01-29T17:07:49.326Z,30.10
2019-01-29T17:10:17.535Z,30.00
2019-01-29T17:12:45.387Z,29.00
2019-01-29T17:15:16.440Z,33.40
2019-01-29T17:17:44.133Z,38.50
2019-01-29T17:20:15.001Z,32.53
2019-01-29T17:22:42.653Z,27.82
2019-01-29T17:25:10.436Z,33.98
2019-01-29T17:27:40.357Z,36.58
2019-01-29T17:30:12.506Z,37.10
2019-01-29T17:32:40.208Z,25.77
2019-01-29T17:35:07.975Z,25.12
2019-01-29T17:37:35.669Z,20.25
2019-01-29T17:40:05.032Z,19.82
2019-01-29T17:42:32.707Z,19.37
2019-01-29T17:45:00.412Z,23.98
2019-01-29T17:47:28.089Z,18.77
2019-01-29T17:49:55.795Z,20.95
2019-01-29T17:52:23.493Z,17.57
2019-01-29T17:54:51.178Z,20.30
2019-01-29T17:57:18.835Z,21.23
2019-01-29T17:59:46.501Z,27.40
2019-01-29T18:02:14.160Z,23.65
2019-01-29T18:04:41.864Z,22.40
2019-01-29T18:07:09.547Z,23.55
2019-01-29T18:09:37.192Z,22.58
2019-01-29T18:12:04.932Z,20.08
2019-01-29T18:14:32.570Z,21.65
2019-01-29T18:17:00.321Z,18.48
2019-01-29T18:19:27.992Z,25.20
2019-01-29T18:21:57.012Z,19.98
2019-01-29T18:24:24.989Z,17.90
2019-01-29T18:26:52.693Z,17.12
2019-01-29T18:29:20.385Z,18.00
2019-01-29T18:31:48.188Z,16.87
2019-01-29T18:34:23.787Z,13.03
2019-01-29T18:36:51.493Z,14.40
2019-01-29T18:39:19.206Z,14.50
2019-01-29T18:41:46.864Z,20.57
2019-01-29T18:44:15.432Z,21.90
2019-01-29T18:46:43.167Z,23.18
2019-01-29T18:49:10.838Z,17.92
2019-01-29T18:51:38.941Z,16.50
2019-01-29T18:54:09.773Z,20.02
2019-01-29T18:56:37.477Z,19.75
2019-01-29T18:59:05.143Z,15.18
2019-01-29T19:01:32.844Z,21.37
2019-01-29T19:04:00.550Z,14.38
2019-01-29T19:06:28.240Z,13.55
2019-01-29T19:08:55.941Z,19.77
2019-01-29T19:11:23.665Z,14.45
2019-01-29T19:13:51.328Z,13.28
2019-01-29T19:16:19.073Z,15.68
2019-01-29T19:18:46.761Z,14.40
2019-01-29T19:21:14.432Z,12.80
2019-01-29T19:23:42.157Z,12.90
2019-01-29T19:26:09.822Z,16.50
2019-01-29T19:28:37.521Z,11.40
2019-01-29T19:31:05.185Z,15.80
2019-01-29T19:33:32.863Z,19.77
2019-01-29T19:36:00.553Z,14.83
2019-01-29T19:38:28.398Z,13.43
2019-01-29T19:40:56.100Z,17.80
2019-01-29T19:43:23.851Z,22.82
2019-01-29T19:45:51.519Z,15.63
2019-01-29T19:48:19.176Z,18.70
2019-01-29T19:50:46.902Z,13.20
2019-01-29T19:53:14.530Z,13.48
2019-01-29T19:55:42.428Z,12.88
2019-01-29T19:58:10.065Z,13.30
2019-01-29T20:00:40.205Z,13.93
2019-01-29T20:03:07.992Z,13.45
2019-01-29T20:05:35.793Z,15.05
2019-01-29T20:08:03.819Z,18.67
2019-01-29T20:10:31.500Z,13.98
2019-01-29T20:12:59.270Z,16.50
2019-01-29T20:15:27.068Z,12.73
2019-01-29T20:17:55.024Z,13.75
2019-01-29T20:20:28.169Z,13.28
2019-01-29T20:22:55.969Z,16.40
2019-01-29T20:25:23.646Z,14.07
2019-01-29T20:27:53.065Z,17.10
2019-01-29T20:30:23.201Z,15.83
2019-01-29T20:32:53.433Z,16.07
2019-01-29T20:35:21.263Z,16.48
2019-01-29T20:37:48.986Z,22.85
2019-01-29T20:40:17.408Z,18.25
2019-01-29T20:42:45.049Z,25.62
2019-01-29T20:45:13.253Z,25.32
2019-01-29T20:47:40.900Z,19.92
2019-01-29T20:50:15.124Z,17.15
2019-01-29T20:52:42.767Z,14.43
2019-01-29T20:55:11.754Z,16.17
2019-01-29T20:57:39.409Z,17.30
2019-01-29T21:00:14.912Z,15.72
2019-01-29T21:02:42.559Z,14.05
2019-01-29T21:05:10.453Z,17.37
2019-01-29T21:07:38.121Z,18.35
2019-01-29T21:10:07.995Z,18.48
2019-01-29T21:12:35.637Z,14.83
2019-01-29T21:15:03.976Z,17.65
2019-01-29T21:17:31.662Z,17.10
2019-01-29T21:19:59.383Z,13.85
2019-01-29T21:22:27.020Z,13.90
2019-01-29T21:24:54.696Z,16.93
2019-01-29T21:27:22.372Z,17.32
2019-01-29T21:29:50.060Z,14.63
2019-01-29T21:32:17.821Z,12.13
2019-01-29T21:34:45.422Z,14.83
2019-01-29T21:37:13.153Z,15.23
2019-01-29T21:39:40.859Z,14.28
2019-01-29T21:42:08.532Z,14.68
2019-01-29T21:44:36.239Z,16.70
2019-01-29T21:47:03.967Z,12.60
2019-01-29T21:49:31.604Z,13.65
2019-01-29T21:51:59.405Z,13.68
2019-01-29T21:54:27.108Z,20.17
2019-01-29T21:56:54.788Z,16.02
2019-01-29T21:59:22.417Z,28.50
2019-01-29T22:01:50.097Z,21.25
2019-01-29T22:04:17.779Z,25.77
2019-01-29T22:06:45.436Z,16.97
2019-01-29T22:09:13.153Z,16.15
2019-01-29T22:11:40.822Z,19.07
2019-01-29T22:14:08.536Z,17.80
2019-01-29T22:16:36.187Z,15.60
2019-01-29T22:19:04.264Z,14.50
2019-01-29T22:21:31.928Z,18.48
2019-01-29T22:23:59.577Z,13.30
2019-01-29T22:26:27.281Z,18.70
2019-01-29T22:28:54.909Z,16.37
2019-01-29T22:31:22.636Z,15.40
2019-01-29T22:33:50.265Z,14.93
2019-01-29T22:36:17.884Z,19.45
2019-01-29T22:38:45.549Z,17.30
2019-01-29T22:41:13.321Z,15.70
2019-01-29T22:43:41.017Z,15.83
2019-01-29T22:46:08.661Z,16.27
2019-01-29T22:48:36.383Z,16.60
2019-01-29T22:51:04.237Z,14.83
2019-01-29T22:53:31.917Z,17.82
2019-01-29T22:55:59.595Z,15.72
2019-01-29T22:58:27.313Z,18.45
2019-01-29T23:01:20.256Z,17.00
2019-01-29T23:03:51.036Z,18.37
2019-01-29T23:06:27.994Z,19.45
2019-01-29T23:08:55.701Z,20.65
2019-01-29T23:11:23.346Z,18.15
2019-01-29T23:13:51.013Z,19.15
2019-01-29T23:16:18.793Z,21.27
2019-01-29T23:18:46.468Z,19.12
2019-01-29T23:21:14.289Z,14.20
2019-01-29T23:23:41.967Z,14.30
2019-01-29T23:26:09.655Z,15.75
2019-01-29T23:28:37.344Z,14.13
2019-01-29T23:31:05.281Z,16.90
2019-01-29T23:33:32.972Z,17.05
2019-01-29T23:36:00.687Z,18.05
2019-01-29T23:38:28.382Z,14.80
2019-01-29T23:40:56.055Z,10.38
2019-01-29T23:43:23.744Z,12.88
2019-01-29T23:45:51.396Z,16.48
2019-01-29T23:48:19.097Z,12.73
2019-01-29T23:50:46.742Z,13.30
2019-01-29T23:53:14.413Z,10.55
2019-01-29T23:55:42.074Z,14.20
2019-01-29T23:58:09.849Z,12.68
